Time;durP1;ratioP1;P1;durP2;ratioP2;P2;SDS_P1;SDS_P2;PMS_P1;PMS_P2;Temp;Humidity;BMP_temperature;BMP_pressure;BME280_temperature;BME280_humidity;BME280_pressure;Samples;Min_cycle;Max_cycle;Signal;HPM_P1;HPM_P2
2022/05/08 00:02:12;;;;;;;8.02;2.33;;;;;;;17.51;49.33;102486.31;5080281;28;20092;-61
2022/05/08 00:04:41;;;;;;;7.15;2.33;;;;;;;17.62;49.44;102509.19;5074261;28;20053;-61
2022/05/08 00:07:09;;;;;;;6.45;2.40;;;;;;;17.59;49.40;102512.38;5068247;28;20044;-61
2022/05/08 00:09:37;;;;;;;5.60;2.88;;;;;;;17.54;49.55;102506.78;5083210;28;20094;-60
2022/05/08 00:12:06;;;;;;;4.95;2.75;;;;;;;17.56;49.69;102520.97;5078803;28;20072;-61
2022/05/08 00:14:34;;;;;;;4.63;2.67;;;;;;;17.54;49.68;102515.78;5081561;28;20084;-61
2022/05/08 00:17:01;;;;;;;7.40;2.58;;;;;;;17.52;49.64;102519.78;5073541;28;20076;-61
2022/05/08 00:19:29;;;;;;;4.85;3.03;;;;;;;17.54;49.82;102520.38;5082328;28;20118;-61
2022/05/08 00:21:59;;;;;;;8.23;2.58;;;;;;;17.52;49.80;102514.34;5081306;28;20138;-61
2022/05/08 00:24:46;;;;;;;8.18;3.25;;;;;;;17.49;49.80;102517.50;5073293;28;20075;-61
2022/05/08 00:27:14;;;;;;;6.97;3.20;;;;;;;17.49;49.99;102515.63;5071571;28;20447;-61
2022/05/08 00:29:42;;;;;;;5.15;2.70;;;;;;;17.47;49.99;102509.59;5080371;28;20091;-61
2022/05/08 00:32:10;;;;;;;8.38;3.38;;;;;;;17.46;50.08;102507.09;5075226;28;20160;-61
2022/05/08 00:34:38;;;;;;;8.88;3.80;;;;;;;17.45;50.00;102503.53;5071010;28;20498;-61
2022/05/08 00:37:07;;;;;;;8.63;3.88;;;;;;;17.43;50.18;102504.84;5073245;28;20079;-61
2022/05/08 00:39:34;;;;;;;7.75;3.00;;;;;;;17.41;50.24;102502.34;5077216;28;20106;-61
2022/05/08 00:42:02;;;;;;;11.10;3.72;;;;;;;17.40;50.18;102503.41;5081311;28;20064;-61
2022/05/08 00:44:30;;;;;;;7.97;3.17;;;;;;;17.39;50.22;102507.16;5081745;28;20068;-61
2022/05/08 00:46:58;;;;;;;7.10;3.78;;;;;;;17.38;50.43;102507.41;5075298;28;20041;-61
2022/05/08 00:49:26;;;;;;;7.00;3.28;;;;;;;17.37;50.39;102509.28;5075903;28;20131;-61
2022/05/08 00:51:54;;;;;;;6.13;2.92;;;;;;;17.37;50.41;102512.00;5071198;28;20473;-61
2022/05/08 00:54:23;;;;;;;6.40;3.08;;;;;;;17.35;50.63;102513.28;5080031;28;20055;-61
2022/05/08 00:56:50;;;;;;;8.15;3.25;;;;;;;17.36;50.41;102513.06;5081425;28;20118;-61
2022/05/08 00:59:20;;;;;;;7.05;3.38;;;;;;;17.34;50.52;102519.78;5079122;28;20095;-61
2022/05/08 01:01:48;;;;;;;5.28;3.42;;;;;;;17.34;50.55;102511.63;5072517;28;20097;-61
2022/05/08 01:04:16;;;;;;;7.35;3.45;;;;;;;17.31;50.50;102518.38;5078806;28;20044;-61
2022/05/08 01:06:44;;;;;;;7.93;3.13;;;;;;;17.30;50.73;102518.59;5080428;28;20068;-61
2022/05/08 01:09:12;;;;;;;7.13;3.50;;;;;;;17.28;50.83;102520.72;5073370;28;20437;-61
2022/05/08 01:11:41;;;;;;;6.80;3.22;;;;;;;17.27;50.76;102522.59;5076663;28;20049;-61
2022/05/08 01:14:08;;;;;;;8.32;4.05;;;;;;;17.25;50.75;102524.72;5079501;28;20109;-62
2022/05/08 01:16:36;;;;;;;7.18;3.28;;;;;;;17.22;51.14;102523.28;5069511;28;20080;-61
2022/05/08 01:19:04;;;;;;;10.23;3.50;;;;;;;17.20;51.05;102522.66;5068196;28;20452;-61
2022/05/08 01:21:38;;;;;;;7.05;3.70;;;;;;;17.16;51.26;102532.31;5078669;28;20084;-61
2022/05/08 01:24:07;;;;;;;10.00;4.00;;;;;;;17.14;51.22;102518.13;5067012;28;20060;-61
2022/05/08 01:26:34;;;;;;;13.27;4.00;;;;;;;17.13;51.34;102531.94;5075344;28;20071;-61
2022/05/08 01:29:03;;;;;;;7.43;3.97;;;;;;;17.12;51.23;102530.28;5070866;28;20105;-61
2022/05/08 01:31:31;;;;;;;5.75;3.65;;;;;;;17.10;51.15;102525.06;5079735;28;20071;-62
2022/05/08 01:33:59;;;;;;;6.38;3.13;;;;;;;17.04;51.23;102519.69;5071446;28;20091;-62
2022/05/08 01:36:27;;;;;;;9.05;4.68;;;;;;;17.07;51.43;102521.97;5079847;28;20053;-61
2022/05/08 01:38:57;;;;;;;9.40;3.38;;;;;;;17.05;51.43;102524.09;5075864;28;20072;-61
2022/05/08 01:41:25;;;;;;;8.05;3.38;;;;;;;17.02;51.18;102524.53;5083106;28;20052;-61
2022/05/08 01:43:52;;;;;;;9.95;4.43;;;;;;;17.02;51.60;102524.53;5072359;28;20607;-61
2022/05/08 01:46:20;;;;;;;8.95;4.40;;;;;;;17.00;51.55;102529.34;5070188;28;20049;-60
2022/05/08 01:48:48;;;;;;;9.20;4.13;;;;;;;17.00;51.60;102535.63;5063767;28;20049;-61
2022/05/08 01:51:16;;;;;;;9.48;3.70;;;;;;;16.98;51.44;102532.28;5081231;28;20067;-61
2022/05/08 01:53:44;;;;;;;9.75;4.00;;;;;;;16.98;51.48;102536.91;5076318;28;20498;-61
2022/05/08 01:56:13;;;;;;;6.43;3.47;;;;;;;16.95;51.49;102537.34;5078010;28;20044;-62
2022/05/08 01:58:41;;;;;;;8.52;3.95;;;;;;;16.92;51.42;102539.44;5076764;28;20064;-62
2022/05/08 02:01:09;;;;;;;6.25;3.63;;;;;;;16.85;51.40;102525.09;5066863;28;20127;-61
2022/05/08 02:03:39;;;;;;;10.73;3.92;;;;;;;16.91;51.40;102542.38;5073372;28;20099;-61
2022/05/08 02:06:07;;;;;;;8.15;3.88;;;;;;;16.91;51.24;102539.66;5077315;28;20244;-61
2022/05/08 02:08:35;;;;;;;9.93;4.22;;;;;;;16.90;51.19;102543.44;5079215;28;20127;-61
2022/05/08 02:11:03;;;;;;;6.25;3.85;;;;;;;16.90;51.32;102540.72;5069868;28;20150;-60
2022/05/08 02:13:32;;;;;;;8.93;4.20;;;;;;;16.89;51.30;102541.78;5070050;28;20570;-62
2022/05/08 02:16:00;;;;;;;7.78;3.33;;;;;;;16.90;51.22;102551.59;5081309;28;20112;-62
2022/05/08 02:18:27;;;;;;;7.35;3.75;;;;;;;16.89;51.24;102544.50;5081168;28;20152;-62
2022/05/08 02:20:55;;;;;;;9.73;4.00;;;;;;;16.87;51.24;102550.16;5080783;28;20051;-61
2022/05/08 02:23:23;;;;;;;7.60;4.35;;;;;;;16.87;51.14;102554.75;5071550;28;20087;-61
2022/05/08 02:25:51;;;;;;;9.98;3.80;;;;;;;16.86;51.28;102555.81;5078952;28;20077;-61
2022/05/08 02:28:18;;;;;;;8.68;4.55;;;;;;;16.85;51.31;102556.84;5077522;28;20094;-61
2022/05/08 02:30:47;;;;;;;9.57;4.10;;;;;;;16.84;51.15;102555.19;5067531;28;20049;-61
2022/05/08 02:33:15;;;;;;;8.13;3.90;;;;;;;16.83;51.26;102556.25;5077725;28;20479;-61
2022/05/08 02:35:43;;;;;;;7.63;3.80;;;;;;;16.82;51.04;102555.41;5077097;28;20185;-61
2022/05/08 02:38:10;;;;;;;9.80;3.50;;;;;;;16.82;51.23;102560.84;5072589;28;20128;-61
2022/05/08 02:40:38;;;;;;;9.40;4.30;;;;;;;16.80;51.35;102564.84;5077533;28;20072;-61
2022/05/08 02:43:06;;;;;;;8.25;3.95;;;;;;;16.79;51.37;102561.28;5075217;28;20083;-61
2022/05/08 02:45:34;;;;;;;11.27;4.53;;;;;;;16.79;51.28;102571.31;5066799;28;20091;-61
2022/05/08 02:48:03;;;;;;;8.32;3.85;;;;;;;16.77;51.25;102568.81;5083718;28;20079;-62
2022/05/08 02:50:31;;;;;;;7.68;4.28;;;;;;;16.76;51.32;102569.03;5068569;28;20049;-61
2022/05/08 02:52:58;;;;;;;7.43;3.78;;;;;;;16.75;51.07;102564.66;5073818;28;20053;-61
2022/05/08 03:00:57;;;;;;;6.55;3.50;;;;;;;16.68;50.74;102567.44;5082898;28;20079;-62
2022/05/08 03:03:27;;;;;;;11.02;4.45;;;;;;;16.67;50.61;102575.78;5084135;28;20087;-61
2022/05/08 03:05:55;;;;;;;10.98;4.20;;;;;;;16.62;49.98;102572.88;5078451;28;20128;-61
2022/05/08 03:08:22;;;;;;;10.95;4.35;;;;;;;16.58;50.23;102569.78;5073710;28;20072;-61
2022/05/08 03:13:37;;;;;;;8.50;4.22;;;;;;;16.50;50.24;102572.75;5075635;28;20083;-61
2022/05/08 03:16:06;;;;;;;14.68;4.78;;;;;;;16.47;50.26;102575.91;5076909;28;20155;-61
2022/05/08 03:18:38;;;;;;;12.15;4.57;;;;;;;16.46;50.30;102569.66;5077611;28;20083;-61
2022/05/08 03:21:07;;;;;;;9.88;5.35;;;;;;;16.46;50.32;102571.53;5076240;28;20139;-61
2022/05/08 03:23:35;;;;;;;11.15;5.10;;;;;;;16.45;50.24;102564.44;5077374;28;20049;-61
2022/05/08 03:26:04;;;;;;;7.45;3.88;;;;;;;16.44;50.16;102562.78;5081349;28;20064;-61
2022/05/08 03:28:32;;;;;;;9.98;4.43;;;;;;;16.43;50.03;102567.38;5074968;28;20048;-61
2022/05/08 03:31:00;;;;;;;6.45;3.67;;;;;;;16.42;50.11;102560.28;5080270;28;20063;-61
2022/05/08 03:33:30;;;;;;;9.95;4.90;;;;;;;16.42;50.13;102562.16;5078780;28;20044;-61
2022/05/08 03:35:59;;;;;;;7.00;3.80;;;;;;;16.34;50.08;102554.28;5081568;28;20076;-61
2022/05/08 03:38:27;;;;;;;9.05;3.75;;;;;;;16.39;49.94;102573.44;5076590;28;20068;-61
2022/05/08 03:40:56;;;;;;;10.05;4.25;;;;;;;16.37;50.01;102562.81;5082840;28;20052;-62
2022/05/08 03:43:24;;;;;;;8.85;4.25;;;;;;;16.34;50.06;102563.25;5081588;28;20055;-61
2022/05/08 03:45:52;;;;;;;16.35;5.25;;;;;;;16.31;49.81;102568.28;5083480;28;20458;-61
2022/05/08 03:48:21;;;;;;;8.90;4.80;;;;;;;16.30;49.71;102570.16;5082646;28;20071;-61
2022/05/08 03:50:48;;;;;;;11.35;4.28;;;;;;;16.28;49.98;102561.41;5069970;28;20084;-61
2022/05/08 03:53:18;;;;;;;9.60;4.00;;;;;;;16.27;49.70;102574.13;5076692;28;20080;-61
2022/05/08 03:55:46;;;;;;;7.00;4.25;;;;;;;16.24;49.66;102561.00;5075749;28;20176;-61
2022/05/08 03:58:13;;;;;;;8.90;4.63;;;;;;;16.23;49.64;102562.06;5076412;28;20080;-61
2022/05/08 04:00:41;;;;;;;9.27;4.25;;;;;;;16.22;49.74;102570.41;5073403;28;20072;-61
2022/05/08 04:03:09;;;;;;;13.10;5.32;;;;;;;16.20;49.67;102562.50;5080208;28;20178;-61
2022/05/08 04:05:37;;;;;;;9.68;5.15;;;;;;;16.21;49.73;102568.75;5079974;28;20048;-61
2022/05/08 04:08:06;;;;;;;14.15;5.18;;;;;;;16.18;49.76;102566.47;5074865;28;20183;-62
2022/05/08 04:10:39;;;;;;;14.18;4.40;;;;;;;16.16;49.71;102569.41;5077968;28;20045;-62
2022/05/08 04:13:07;;;;;;;11.60;4.60;;;;;;;16.18;49.68;102574.63;5073259;28;20117;-62
2022/05/08 04:18:20;;;;;;;9.90;4.65;;;;;;;16.13;49.58;102586.13;5075129;28;20351;-62
2022/05/08 04:20:48;;;;;;;11.63;4.82;;;;;;;16.12;49.39;102584.44;5079016;28;20080;-60
2022/05/08 04:26:02;;;;;;;13.63;4.80;;;;;;;16.07;49.63;102586.97;5077932;28;20072;-62
2022/05/08 04:28:29;;;;;;;10.85;4.63;;;;;;;16.05;49.37;102589.06;5083247;28;20084;-62
2022/05/08 04:30:57;;;;;;;11.02;4.63;;;;;;;16.02;49.60;102588.66;5073967;28;20447;-61
2022/05/08 04:33:25;;;;;;;12.98;4.85;;;;;;;16.02;49.50;102588.66;5077551;28;20108;-62
2022/05/08 04:35:53;;;;;;;14.20;4.70;;;;;;;16.00;49.42;102588.88;5081731;28;20069;-60
2022/05/08 04:38:21;;;;;;;12.93;5.03;;;;;;;15.99;49.61;102587.22;5079660;28;20063;-62
2022/05/08 04:40:48;;;;;;;11.18;4.20;;;;;;;15.99;49.53;102595.34;5082907;28;20040;-61
2022/05/08 04:43:17;;;;;;;10.75;3.85;;;;;;;15.97;49.54;102592.03;5075717;28;20053;-61
2022/05/08 04:45:45;;;;;;;9.88;3.97;;;;;;;15.98;49.47;102598.28;5081067;28;20187;-61
2022/05/08 04:48:13;;;;;;;14.05;4.30;;;;;;;15.86;49.12;102587.28;5078322;28;20417;-61
2022/05/08 04:50:41;;;;;;;13.75;4.10;;;;;;;15.88;49.22;102596.84;5078343;28;20049;-60
2022/05/08 04:53:09;;;;;;;14.82;3.72;;;;;;;15.89;49.33;102611.25;5081823;28;20072;-62
2022/05/08 04:55:37;;;;;;;15.23;4.78;;;;;;;15.86;48.95;102606.25;5077452;28;20154;-61
2022/05/08 04:58:04;;;;;;;14.00;4.53;;;;;;;15.84;49.25;102608.34;5071369;28;20099;-61
2022/05/08 05:00:34;;;;;;;14.27;4.88;;;;;;;15.81;49.01;102609.59;5079473;28;20080;-60
2022/05/08 05:03:01;;;;;;;18.00;4.70;;;;;;;15.81;49.01;102617.75;5076796;28;20052;-59
2022/05/08 05:05:29;;;;;;;11.15;4.90;;;;;;;15.79;48.98;102627.13;5072701;28;20054;-61
2022/05/08 05:07:57;;;;;;;12.57;4.55;;;;;;;15.78;49.24;102629.00;5076528;28;20052;-62
2022/05/08 05:10:25;;;;;;;13.68;4.80;;;;;;;15.78;48.96;102630.88;5077534;28;20044;-61
2022/05/08 05:12:53;;;;;;;16.88;4.85;;;;;;;15.76;49.09;102630.28;5075362;28;20127;-62
2022/05/08 05:15:21;;;;;;;11.75;4.18;;;;;;;15.74;49.08;102632.34;5069929;28;20453;-62
2022/05/08 05:17:50;;;;;;;16.38;4.80;;;;;;;15.69;49.02;102637.59;5081884;28;20044;-62
2022/05/08 05:20:18;;;;;;;16.10;4.05;;;;;;;15.71;49.22;102641.75;5077540;28;20139;-62
2022/05/08 05:22:45;;;;;;;13.57;4.43;;;;;;;15.70;49.00;102644.66;5077171;28;20056;-61
2022/05/08 05:25:13;;;;;;;13.50;4.68;;;;;;;15.69;49.42;102648.44;5077856;28;20080;-62
2022/05/08 05:27:44;;;;;;;14.75;4.95;;;;;;;15.68;49.50;102644.88;5073726;28;20481;-61
2022/05/08 05:30:15;;;;;;;13.82;4.70;;;;;;;15.67;49.27;102653.22;4717927;28;9999975;-61
2022/05/08 05:32:43;;;;;;;17.40;4.38;;;;;;;15.65;49.39;102649.91;5079240;28;20057;-60
2022/05/08 05:35:12;;;;;;;16.17;5.30;;;;;;;15.66;49.35;102659.69;5069592;28;20520;-59
2022/05/08 05:37:40;;;;;;;14.05;4.53;;;;;;;15.61;49.24;102644.91;5071244;28;20083;-61
2022/05/08 05:40:09;;;;;;;17.40;4.80;;;;;;;15.66;49.56;102654.28;5068562;28;20104;-60
2022/05/08 05:42:38;;;;;;;11.23;3.92;;;;;;;15.64;49.22;102662.63;5074793;28;20081;-61
2022/05/08 05:45:07;;;;;;;17.98;4.40;;;;;;;15.63;49.30;102667.19;5069415;28;20167;-61
2022/05/08 05:47:49;;;;;;;21.20;4.82;;;;;;;15.63;49.16;102677.22;5068926;28;20068;-62
2022/05/08 05:50:19;;;;;;;11.93;4.22;;;;;;;15.62;49.42;102670.13;5064345;28;20064;-61
2022/05/08 05:52:47;;;;;;;9.60;3.92;;;;;;;15.61;49.47;102673.88;5077867;28;20080;-60
2022/05/08 05:55:15;;;;;;;15.32;5.07;;;;;;;15.59;49.43;102679.53;5076106;28;20076;-61
2022/05/08 05:57:44;;;;;;;14.82;3.80;;;;;;;15.60;49.24;102680.38;5068116;28;20087;-60
2022/05/08 06:00:13;;;;;;;12.95;3.90;;;;;;;15.61;49.33;102684.72;5064352;28;20148;-61
2022/05/08 06:02:43;;;;;;;15.27;4.30;;;;;;;15.60;49.12;102685.78;5074650;28;20044;-61
2022/05/08 06:05:12;;;;;;;19.35;4.43;;;;;;;15.60;49.21;102694.72;5069725;28;20049;-61
2022/05/08 06:07:42;;;;;;;13.02;4.07;;;;;;;15.58;49.35;102685.16;5071050;28;20080;-61
2022/05/08 06:10:12;;;;;;;16.70;4.50;;;;;;;15.57;49.07;102684.34;5074112;28;20172;-61
2022/05/08 06:12:40;;;;;;;16.75;4.60;;;;;;;15.45;48.91;102677.03;5075190;28;20076;-62
2022/05/08 06:15:09;;;;;;;14.45;5.13;;;;;;;15.55;49.21;102699.09;5068922;28;20135;-61
2022/05/08 06:17:37;;;;;;;11.80;3.83;;;;;;;15.52;48.92;102702.25;5063795;28;20087;-60
2022/05/08 06:20:06;;;;;;;19.05;5.25;;;;;;;15.49;49.10;102708.06;5073672;28;20470;-60
2022/05/08 06:22:34;;;;;;;18.70;5.57;;;;;;;15.43;49.19;102707.03;5076103;28;20067;-60
2022/05/08 06:25:04;;;;;;;22.92;5.40;;;;;;;15.40;49.12;102702.03;5077057;28;20048;-60
2022/05/08 06:27:32;;;;;;;18.60;4.22;;;;;;;15.40;49.28;102706.63;5076813;28;20080;-61
2022/05/08 06:30:00;;;;;;;19.60;4.25;;;;;;;15.39;49.25;102710.38;5068994;28;20073;-60
2022/05/08 06:32:29;;;;;;;18.30;5.55;;;;;;;15.39;49.25;102716.63;5065469;28;20049;-59
2022/05/08 06:34:56;;;;;;;16.58;5.15;;;;;;;15.38;49.13;102717.66;5077770;28;20331;-60
2022/05/08 06:37:24;;;;;;;16.33;4.55;;;;;;;15.37;49.00;102713.28;5076634;28;20120;-58
2022/05/08 06:39:52;;;;;;;10.32;3.80;;;;;;;15.37;49.30;102716.00;5075533;28;20036;-59
2022/05/08 06:42:21;;;;;;;21.23;6.22;;;;;;;15.37;49.21;102718.69;5077384;28;20076;-58
2022/05/08 06:44:49;;;;;;;18.90;4.85;;;;;;;15.39;49.00;102718.50;5066304;28;20048;-59
2022/05/08 06:47:16;;;;;;;15.50;4.63;;;;;;;15.40;49.26;102728.28;5079633;28;20238;-61
2022/05/08 06:49:44;;;;;;;18.45;4.10;;;;;;;15.39;49.14;102713.91;5062620;28;20059;-61
2022/05/08 06:52:12;;;;;;;14.73;4.45;;;;;;;15.25;49.01;102702.22;5062018;28;20140;-60
2022/05/08 06:54:39;;;;;;;17.08;3.97;;;;;;;15.37;49.11;102718.69;5064337;28;20079;-60
2022/05/08 06:57:07;;;;;;;17.60;4.55;;;;;;;15.36;49.10;102727.88;5073847;28;20068;-59
2022/05/08 07:02:21;;;;;;;18.63;5.68;;;;;;;15.37;49.09;102718.69;5066153;28;20092;-64
2022/05/08 07:04:49;;;;;;;19.67;4.47;;;;;;;15.39;48.94;102729.34;5071315;28;20059;-62
2022/05/08 07:07:17;;;;;;;15.65;5.00;;;;;;;15.39;49.13;102727.47;5075940;28;20072;-60
2022/05/08 07:09:44;;;;;;;15.02;4.32;;;;;;;15.39;49.00;102729.34;5072740;28;20136;-60
2022/05/08 07:12:12;;;;;;;21.77;5.18;;;;;;;15.34;49.05;102729.13;5074605;28;20143;-63
2022/05/08 07:14:42;;;;;;;14.90;3.95;;;;;;;15.37;48.89;102732.25;5077521;28;20048;-64
2022/05/08 07:17:10;;;;;;;19.80;4.85;;;;;;;15.34;48.73;102732.66;5076390;28;20061;-63
2022/05/08 07:19:38;;;;;;;14.90;4.10;;;;;;;15.34;48.47;102742.66;5076592;28;20068;-63
2022/05/08 07:22:06;;;;;;;12.48;4.43;;;;;;;15.34;49.03;102742.66;5079148;28;20079;-63
2022/05/08 07:24:34;;;;;;;13.88;4.00;;;;;;;15.31;48.79;102733.09;5069144;28;20056;-62
2022/05/08 07:27:01;;;;;;;17.25;4.78;;;;;;;15.29;48.67;102732.44;5075466;28;20447;-62
2022/05/08 07:29:29;;;;;;;11.75;3.28;;;;;;;15.31;48.48;102738.50;5074925;28;20086;-62
2022/05/08 07:31:59;;;;;;;19.08;4.50;;;;;;;15.32;48.67;102742.88;5079211;28;20045;-60
2022/05/08 07:37:11;;;;;;;17.25;4.70;;;;;;;15.35;48.78;102736.22;5079484;28;20083;-61
2022/05/08 07:39:39;;;;;;;18.83;4.57;;;;;;;15.35;48.66;102747.03;5079863;28;20127;-65
2022/05/08 07:42:07;;;;;;;10.30;4.28;;;;;;;15.36;48.38;102746.00;5075838;28;20076;-60
2022/05/08 07:44:35;;;;;;;14.25;3.92;;;;;;;15.35;48.69;102741.63;5073261;28;20147;-61
2022/05/08 07:47:05;;;;;;;14.73;5.22;;;;;;;15.35;48.55;102756.00;5071905;28;20121;-62
2022/05/08 07:49:33;;;;;;;14.15;3.88;;;;;;;15.35;48.73;102752.47;5070667;28;20080;-61
2022/05/08 07:52:00;;;;;;;14.52;4.03;;;;;;;15.35;48.53;102753.28;5082532;28;20051;-62
2022/05/08 07:54:28;;;;;;;15.65;3.72;;;;;;;15.34;48.45;102745.38;5078065;28;20112;-62
2022/05/08 07:56:56;;;;;;;15.68;4.38;;;;;;;15.32;48.30;102756.41;5085553;28;20216;-62
2022/05/08 07:59:23;;;;;;;16.10;4.22;;;;;;;15.33;48.18;102744.53;5080635;28;20846;-61
2022/05/08 08:01:51;;;;;;;16.35;3.70;;;;;;;15.33;48.25;102754.53;5075346;28;20076;-62
2022/05/08 08:04:20;;;;;;;13.68;3.97;;;;;;;15.33;48.50;102758.09;5082816;28;20163;-62
2022/05/08 08:06:48;;;;;;;15.60;4.25;;;;;;;15.34;48.42;102764.34;5078451;28;20086;-62
2022/05/08 08:09:16;;;;;;;18.83;4.72;;;;;;;15.36;48.49;102762.25;5076791;28;20091;-62
2022/05/08 08:11:43;;;;;;;16.27;4.28;;;;;;;15.37;48.47;102766.63;5076811;28;20052;-61
2022/05/08 08:14:11;;;;;;;17.80;5.00;;;;;;;15.38;48.46;102763.72;5082805;28;20127;-59
2022/05/08 08:16:59;;;;;;;16.55;3.88;;;;;;;15.36;48.43;102759.56;5082961;28;20089;-61
2022/05/08 08:19:30;;;;;;;13.85;3.70;;;;;;;15.38;48.14;102766.44;5076335;28;20094;-61
2022/05/08 08:21:59;;;;;;;10.88;3.40;;;;;;;15.39;48.09;102768.09;5082044;28;20076;-61
2022/05/08 08:24:27;;;;;;;15.00;3.58;;;;;;;15.40;48.42;102768.94;5087036;28;20071;-63
2022/05/08 08:26:56;;;;;;;15.10;3.75;;;;;;;15.40;48.09;102758.09;5084279;28;20079;-63
2022/05/08 08:29:24;;;;;;;13.15;3.40;;;;;;;15.42;48.01;102758.72;5078307;28;20277;-62
2022/05/08 08:31:51;;;;;;;11.38;3.13;;;;;;;15.41;48.23;102752.47;5075925;28;20068;-63
2022/05/08 08:34:19;;;;;;;16.10;3.88;;;;;;;15.42;48.19;102758.72;5076891;28;20052;-62
2022/05/08 08:36:49;;;;;;;12.95;3.00;;;;;;;15.41;47.95;102760.59;5080333;28;20064;-62
2022/05/08 08:39:17;;;;;;;13.48;3.50;;;;;;;15.44;48.09;102778.31;5066446;28;20052;-63
2022/05/08 08:41:53;;;;;;;13.77;3.63;;;;;;;15.43;47.94;102769.34;5070638;28;20060;-62
2022/05/08 08:50:03;;;;;;;14.13;3.42;;;;;;;15.49;47.85;102768.53;5079214;28;20052;-63
2022/05/08 08:52:33;;;;;;;13.15;3.70;;;;;;;15.50;47.99;102769.34;5074508;28;20127;-61
2022/05/08 08:55:00;;;;;;;17.05;4.40;;;;;;;15.52;47.62;102770.81;5070295;28;20110;-62
2022/05/08 08:57:28;;;;;;;13.18;3.83;;;;;;;15.54;47.66;102765.19;5073767;28;20080;-63
2022/05/08 08:59:56;;;;;;;21.05;4.75;;;;;;;15.55;47.43;102770.41;5080705;28;20076;-63
2022/05/08 09:02:24;;;;;;;10.80;3.20;;;;;;;15.56;47.25;102773.94;5079365;28;20050;-63
2022/05/08 09:04:54;;;;;;;11.27;3.03;;;;;;;15.56;47.34;102766.66;5075308;28;20053;-63
2022/05/08 09:07:43;;;;;;;13.60;4.25;;;;;;;15.59;47.26;102768.16;5077511;28;20108;-62
2022/05/08 09:10:16;;;;;;;16.02;3.88;;;;;;;15.61;47.39;102774.16;5077355;28;20083;-62
2022/05/08 09:13:00;;;;;;;19.45;3.60;;;;;;;15.62;46.62;102770.41;5069861;28;20072;-62
2022/05/08 09:15:30;;;;;;;12.10;3.55;;;;;;;15.63;46.88;102775.63;5070120;28;20076;-62
2022/05/08 09:18:00;;;;;;;16.67;3.88;;;;;;;15.61;46.89;102761.44;5056726;28;20504;-65
2022/05/08 09:20:33;;;;;;;14.48;3.88;;;;;;;15.68;46.46;102775.00;5070363;28;20060;-61
2022/05/08 09:23:09;;;;;;;14.25;3.45;;;;;;;15.70;46.72;102774.78;5060387;28;20091;-63
2022/05/08 09:25:53;;;;;;;8.43;3.37;;;;;;;15.71;46.65;102777.28;5074299;28;20048;-62
2022/05/08 09:28:34;;;;;;;11.93;3.13;;;;;;;15.70;45.54;102766.66;5077338;28;20354;-62
2022/05/08 09:31:06;;;;;;;11.45;2.88;;;;;;;15.71;45.75;102762.91;5066132;28;20076;-62
2022/05/08 09:33:36;;;;;;;10.38;3.00;;;;;;;15.73;46.08;102760.81;5069816;28;20044;-63
2022/05/08 09:36:05;;;;;;;14.77;3.67;;;;;;;15.72;46.22;102757.28;5069401;28;20067;-60
2022/05/08 09:38:49;;;;;;;15.65;3.33;;;;;;;15.76;46.03;102749.56;5069353;28;20053;-62
2022/05/08 09:41:19;;;;;;;11.70;3.60;;;;;;;15.78;45.92;102755.59;5066948;28;20052;-62
2022/05/08 09:43:47;;;;;;;13.80;3.58;;;;;;;15.80;45.63;102751.63;5070129;28;20080;-62
2022/05/08 09:46:15;;;;;;;9.65;3.08;;;;;;;15.81;45.52;102742.47;5063725;28;20075;-61
2022/05/08 09:48:43;;;;;;;15.93;2.97;;;;;;;15.82;45.33;102746.00;5074272;28;20072;-62
2022/05/08 09:51:12;;;;;;;11.13;3.38;;;;;;;15.85;45.77;102748.28;5079313;28;20048;-62
2022/05/08 09:53:41;;;;;;;14.27;3.42;;;;;;;15.86;45.34;102747.25;5080946;28;20151;-62
2022/05/08 09:56:12;;;;;;;14.45;3.47;;;;;;;15.87;45.24;102748.91;5074856;28;20068;-63
2022/05/08 09:58:41;;;;;;;12.32;4.00;;;;;;;15.90;45.96;102745.78;5086537;28;20139;-62
2022/05/08 10:01:09;;;;;;;10.90;3.40;;;;;;;15.92;45.35;102749.13;5090129;28;20045;-62
2022/05/08 10:03:37;;;;;;;9.68;3.40;;;;;;;15.94;45.08;102747.03;5072724;28;20076;-61
2022/05/08 10:06:05;;;;;;;13.45;3.53;;;;;;;15.98;45.98;102750.16;5077608;28;20041;-61
2022/05/08 10:08:36;;;;;;;8.57;2.70;;;;;;;16.01;46.73;102750.56;5071473;28;20112;-64
2022/05/08 10:13:54;;;;;;;13.73;3.40;;;;;;;16.09;45.36;102736.78;5074949;28;20040;-62
2022/05/08 10:16:44;;;;;;;10.70;3.28;;;;;;;16.13;45.36;102738.03;5072819;28;20092;-62
2022/05/08 10:19:55;;;;;;;9.85;3.00;;;;;;;16.16;45.65;102739.47;5074288;28;20080;-63
2022/05/08 10:22:24;;;;;;;15.00;3.35;;;;;;;16.18;44.96;102737.38;5071370;28;20531;-62
2022/05/08 10:24:56;;;;;;;10.68;2.97;;;;;;;16.21;44.98;102740.50;5080595;28;20072;-62
2022/05/08 10:27:27;;;;;;;10.90;3.08;;;;;;;16.23;45.19;102729.44;5074272;28;20203;-61
2022/05/08 10:30:23;;;;;;;10.77;3.08;;;;;;;16.25;45.95;102730.88;5080659;28;20068;-63
2022/05/08 10:32:52;;;;;;;10.73;2.80;;;;;;;16.28;44.81;102724.19;5082501;28;20044;-63
2022/05/08 10:35:22;;;;;;;10.82;2.75;;;;;;;16.31;45.10;102725.66;5081962;28;20052;-63
2022/05/08 10:37:51;;;;;;;10.85;3.85;;;;;;;16.34;44.63;102725.22;5068607;28;20044;-63
2022/05/08 10:40:33;;;;;;;10.20;3.45;;;;;;;16.37;45.40;102713.94;5075728;28;20234;-64
2022/05/08 10:43:18;;;;;;;7.90;3.38;;;;;;;16.40;45.44;102713.50;5075948;28;20535;-63
2022/05/08 10:45:46;;;;;;;9.25;2.53;;;;;;;16.42;45.31;102716.84;5070478;28;20532;-66
2022/05/08 10:48:16;;;;;;;8.35;2.90;;;;;;;16.49;46.11;102714.94;5075126;28;20548;-65
2022/05/08 10:50:47;;;;;;;9.20;2.08;;;;;;;16.40;46.14;102689.91;5066311;28;20112;-64
2022/05/08 10:53:23;;;;;;;13.07;2.65;;;;;;;16.57;45.76;102704.66;5065170;28;20041;-63
2022/05/08 10:55:52;;;;;;;10.73;3.40;;;;;;;16.62;46.00;102706.72;5066150;28;20080;-63
2022/05/08 10:58:20;;;;;;;10.25;2.55;;;;;;;16.70;46.84;102711.94;5082978;28;20045;-63
2022/05/08 11:00:50;;;;;;;10.60;2.90;;;;;;;16.75;47.06;102709.41;5080596;28;20087;-63
2022/05/08 11:03:25;;;;;;;9.65;2.35;;;;;;;16.87;47.23;102714.97;5072461;28;20051;-63
2022/05/08 11:05:53;;;;;;;7.80;2.65;;;;;;;16.90;46.85;102712.66;5082249;28;20052;-63
2022/05/08 11:08:23;;;;;;;8.70;2.40;;;;;;;16.96;46.51;102710.13;5083848;28;20076;-63
2022/05/08 11:11:03;;;;;;;7.43;2.83;;;;;;;17.03;47.21;102710.91;5082031;28;20044;-63
2022/05/08 11:13:42;;;;;;;9.70;3.03;;;;;;;17.13;47.57;102705.81;5076103;28;20121;-63
2022/05/08 11:16:11;;;;;;;8.40;2.05;;;;;;;17.20;47.43;102702.00;5072701;28;20053;-63
2022/05/08 11:18:40;;;;;;;13.35;2.30;;;;;;;17.27;47.34;102701.13;5080023;28;20060;-63
2022/05/08 11:21:11;;;;;;;8.15;2.28;;;;;;;17.33;47.13;102697.53;5086551;28;20083;-63
2022/05/08 11:23:44;;;;;;;9.07;3.40;;;;;;;17.35;46.23;102701.66;5083896;28;20076;-63
2022/05/08 11:26:14;;;;;;;13.27;3.42;;;;;;;17.35;46.20;102692.66;5076827;28;20049;-64
2022/05/08 11:28:49;;;;;;;7.78;2.33;;;;;;;17.36;45.77;102699.75;5085917;28;20060;-63
2022/05/08 11:31:19;;;;;;;9.48;2.60;;;;;;;17.39;46.20;102693.88;5083457;28;21333;-63
2022/05/08 11:36:35;;;;;;;11.23;3.13;;;;;;;17.51;46.05;102698.38;5072100;28;20083;-63
2022/05/08 11:39:05;;;;;;;10.98;2.90;;;;;;;17.50;44.93;102680.41;5084432;28;20048;-63
2022/05/08 11:41:37;;;;;;;11.43;2.78;;;;;;;17.55;45.60;102680.56;5073134;28;20041;-63
2022/05/08 11:44:17;;;;;;;11.73;3.22;;;;;;;17.66;46.59;102686.34;5085383;28;20044;-63
2022/05/08 11:46:46;;;;;;;6.47;2.38;;;;;;;17.76;47.12;102694.81;5082375;28;20090;-63
2022/05/08 11:49:18;;;;;;;7.65;2.63;;;;;;;17.79;46.64;102681.59;5084642;28;20052;-63
2022/05/08 11:51:46;;;;;;;7.18;3.00;;;;;;;17.83;46.00;102685.53;5085867;28;20079;-62
2022/05/08 11:54:25;;;;;;;8.35;2.67;;;;;;;17.86;45.23;102678.81;5077939;28;20165;-62
2022/05/08 11:57:12;;;;;;;7.82;1.92;;;;;;;17.89;45.28;102684.66;5080724;28;20045;-62
2022/05/08 11:59:40;;;;;;;8.18;2.30;;;;;;;17.93;45.89;102665.16;5072919;28;20056;-62
2022/05/08 12:02:09;;;;;;;6.43;1.85;;;;;;;18.00;46.14;102664.00;5075503;28;20147;-62